Pocahontas, Mississippi
Current Conditions -  °F | °C
As of 9:53 PM on Thursday 18 Dec 2014 (Local Time) from KHKS Reporting Station
Broken Clouds Broken Clouds  
Wind Chill: 47°   Ceiling: 4100
Heat Index: 47°   Visibility: 9mi
Dew Point: 44°   Wind: 0mph
Humidity: 90%   Direction: NA
Pressure: 30.2"   Gusts: NA
Location:  32.47°N, 90.29°W
Report Text: KHKS 190353Z AUTO 00000KT 9SM SCT034 BKN041 08/07 A3020 RMK AO2 SLP220 T00830067
Loading
Personal Weather Stations






























Interactive Weather Map New forecast layout! Learn more

10-Day Weather Forecast

Advertisements
Track Severe Weather on mobile